Time;durP1;ratioP1;P1;durP2;ratioP2;P2;SDS_P1;SDS_P2;PMS_P1;PMS_P2;Temp;Humidity;BMP_temperature;BMP_pressure;BME280_temperature;BME280_humidity;BME280_pressure;Samples;Min_cycle;Max_cycle;Signal;HPM_P1;HPM_P2
2022/06/01 00:01:04;;;;;;;2.28;2.08;;;;;;;16.24;66.61;98430.25;5026818;27;102748;-68
2022/06/01 00:03:34;;;;;;;3.08;2.78;;;;;;;16.09;67.19;98430.91;5030321;27;103764;-68
2022/06/01 00:06:02;;;;;;;2.50;2.30;;;;;;;16.11;66.90;98426.31;5026347;27;103741;-68
2022/06/01 00:08:30;;;;;;;2.65;2.00;;;;;;;16.13;66.62;98429.66;5032024;27;103245;-68
2022/06/01 00:11:00;;;;;;;2.78;2.42;;;;;;;16.15;66.52;98427.66;5034663;27;102633;-68
2022/06/01 00:13:29;;;;;;;2.70;2.50;;;;;;;16.11;66.70;98440.44;5032679;27;103729;-68
2022/06/01 00:15:57;;;;;;;3.63;2.40;;;;;;;16.09;66.31;98422.94;5028030;27;104067;-68
2022/06/01 00:18:25;;;;;;;2.70;2.50;;;;;;;16.04;66.20;98433.22;5029354;27;103723;-68
2022/06/01 00:20:54;;;;;;;2.10;2.00;;;;;;;15.99;66.89;98435.50;5033035;27;102703;-68
2022/06/01 00:23:22;;;;;;;3.30;2.90;;;;;;;15.53;68.66;98431.97;5030602;27;104607;-68
2022/06/01 00:25:53;;;;;;;3.40;2.40;;;;;;;15.66;68.61;98440.44;5028255;27;104142;-67
2022/06/01 00:28:24;;;;;;;2.30;2.00;;;;;;;15.85;67.08;98438.66;5029044;27;103612;-68
2022/06/01 00:30:52;;;;;;;3.08;2.78;;;;;;;15.88;66.58;98433.06;5014660;27;102613;-68
2022/06/01 00:33:20;;;;;;;3.13;2.53;;;;;;;15.82;66.92;98441.63;5032060;27;103908;-68
2022/06/01 00:35:48;;;;;;;2.72;2.45;;;;;;;15.79;67.26;98444.59;5026563;27;103691;-68
2022/06/01 00:38:17;;;;;;;2.58;2.38;;;;;;;15.76;67.39;98444.88;5028549;27;103272;-68
2022/06/01 00:40:46;;;;;;;3.03;2.70;;;;;;;15.74;67.38;98444.22;5014236;27;102714;-68
2022/06/01 00:43:20;;;;;;;3.20;2.90;;;;;;;15.69;67.60;98438.50;5032169;27;104709;-68
2022/06/01 00:45:51;;;;;;;3.13;2.83;;;;;;;15.58;68.01;98443.03;5027962;27;104324;-68
2022/06/01 00:48:23;;;;;;;2.88;2.30;;;;;;;15.65;67.72;98446.78;5029569;27;103309;-68
2022/06/01 00:50:51;;;;;;;2.40;2.20;;;;;;;15.57;67.69;98448.50;5030636;27;102930;-68
2022/06/01 00:53:23;;;;;;;3.25;2.90;;;;;;;15.43;68.67;98444.50;5011014;27;103061;-68
2022/06/01 00:55:54;;;;;;;3.30;2.70;;;;;;;15.40;68.53;98457.25;5008427;27;104349;-68
2022/06/01 00:58:30;;;;;;;2.60;2.40;;;;;;;15.38;68.75;98461.88;5029973;27;103238;-68
2022/06/01 01:00:59;;;;;;;3.60;2.95;;;;;;;14.83;69.82;98452.94;5028562;27;105070;-67
2022/06/01 01:03:34;;;;;;;3.63;3.25;;;;;;;14.02;73.45;98458.69;5025563;27;104418;-67
2022/06/01 01:06:16;;;;;;;2.95;2.65;;;;;;;14.23;73.56;98460.22;5031121;27;103608;-68
2022/06/01 01:08:46;;;;;;;2.65;2.45;;;;;;;14.82;70.57;98453.94;5030426;27;103227;-68
2022/06/01 01:11:16;;;;;;;1.90;1.80;;;;;;;14.99;69.45;98455.81;5030647;27;102748;-68
2022/06/01 01:13:47;;;;;;;2.75;2.20;;;;;;;15.10;68.73;98451.19;5017089;27;104442;-68
2022/06/01 01:16:17;;;;;;;3.00;2.70;;;;;;;15.08;68.95;98444.31;5033900;27;104241;-68
2022/06/01 01:18:47;;;;;;;3.38;2.78;;;;;;;14.80;70.13;98445.25;5032893;27;103412;-68
2022/06/01 01:21:24;;;;;;;3.73;3.00;;;;;;;14.63;70.99;98446.81;5012880;27;102692;-68
2022/06/01 01:23:58;;;;;;;3.42;2.65;;;;;;;14.51;71.67;98443.47;5033984;27;102634;-68
2022/06/01 01:26:29;;;;;;;2.58;2.30;;;;;;;14.59;71.53;98441.94;5034726;27;104072;-68
2022/06/01 01:29:00;;;;;;;2.40;2.20;;;;;;;14.75;70.23;98439.53;5012787;27;104269;-68
2022/06/01 01:31:30;;;;;;;2.83;2.63;;;;;;;14.66;70.38;98446.53;5029023;27;102585;-68
2022/06/01 01:33:58;;;;;;;4.82;2.80;;;;;;;14.13;72.27;98439.94;5030934;27;102716;-68
2022/06/01 01:36:32;;;;;;;3.13;2.87;;;;;;;13.97;74.02;98456.44;5018076;27;103455;-67
2022/06/01 01:39:05;;;;;;;3.70;2.70;;;;;;;14.09;73.34;98459.81;5033267;27;103217;-68
2022/06/01 01:41:40;;;;;;;2.40;1.95;;;;;;;14.34;71.94;98449.47;5033246;27;102681;-68
2022/06/01 01:44:13;;;;;;;2.17;2.08;;;;;;;14.37;71.45;98443.88;5031172;27;102640;-71
2022/06/01 01:46:47;;;;;;;2.90;2.60;;;;;;;14.38;71.38;98447.41;5029771;27;103483;-68
2022/06/01 01:49:16;;;;;;;3.53;3.17;;;;;;;14.20;71.95;98439.28;5034084;27;103442;-70
2022/06/01 01:51:44;;;;;;;3.33;3.00;;;;;;;14.17;72.05;98444.88;5028526;27;102970;-70
2022/06/01 01:54:24;;;;;;;3.65;3.10;;;;;;;13.32;76.13;98449.84;5032062;27;104603;-70
2022/06/01 01:57:15;;;;;;;3.92;3.20;;;;;;;13.47;76.29;98452.13;5033143;27;103363;-70
2022/06/01 01:59:55;;;;;;;3.40;3.10;;;;;;;13.76;74.69;98453.03;5034246;27;103209;-70
2022/06/01 02:02:30;;;;;;;2.40;2.13;;;;;;;14.09;73.56;98449.19;5024704;27;104163;-70
2022/06/01 02:07:58;;;;;;;2.30;2.10;;;;;;;14.39;71.58;98446.44;5034234;27;103270;-70
2022/06/01 02:13:14;;;;;;;3.90;3.20;;;;;;;13.27;76.00;98452.06;5029105;27;102588;-70
2022/06/01 02:15:47;;;;;;;5.10;4.07;;;;;;;12.77;79.69;98448.41;5029320;27;102549;-70
2022/06/01 02:18:19;;;;;;;5.15;3.92;;;;;;;12.91;80.04;98452.56;5011133;27;104441;-70
2022/06/01 02:20:56;;;;;;;4.47;3.58;;;;;;;13.11;79.92;98450.84;5029789;27;103387;-70
2022/06/01 02:23:25;;;;;;;2.50;2.30;;;;;;;13.73;76.42;98454.16;5027286;27;102588;-70
2022/06/01 02:25:55;;;;;;;3.65;2.83;;;;;;;13.94;74.58;98452.25;5032238;27;104132;-70
2022/06/01 02:28:25;;;;;;;5.90;4.55;;;;;;;13.12;77.77;98452.53;5028304;27;103954;-70
2022/06/01 02:30:55;;;;;;;3.20;2.90;;;;;;;13.38;77.54;98458.25;5029995;27;103485;-70
2022/06/01 02:33:25;;;;;;;2.78;2.58;;;;;;;13.65;75.28;98451.34;5029577;27;104465;-70
2022/06/01 02:35:55;;;;;;;2.60;2.40;;;;;;;13.83;73.74;98454.19;5029299;27;104789;-70
2022/06/01 02:38:29;;;;;;;4.13;3.58;;;;;;;13.72;73.92;98447.19;5028541;27;103944;-70
2022/06/01 02:40:57;;;;;;;4.77;3.80;;;;;;;13.13;76.49;98449.78;5029143;27;103298;-70
2022/06/01 02:43:26;;;;;;;4.47;4.00;;;;;;;12.85;77.98;98438.97;5033944;27;102643;-70
2022/06/01 02:45:56;;;;;;;4.75;4.10;;;;;;;13.01;78.54;98448.13;5029077;27;103847;-70
2022/06/01 02:48:24;;;;;;;4.10;3.33;;;;;;;13.19;77.42;98445.75;5014990;27;104197;-70
2022/06/01 02:50:52;;;;;;;3.60;3.30;;;;;;;13.11;78.27;98446.38;5035085;27;103177;-70
2022/06/01 02:53:20;;;;;;;4.10;3.70;;;;;;;13.31;76.04;98442.84;5008819;27;102959;-70
2022/06/01 02:55:48;;;;;;;3.63;3.30;;;;;;;13.47;74.52;98449.47;5029488;27;102633;-70
2022/06/01 02:58:16;;;;;;;3.45;3.15;;;;;;;13.48;75.16;98448.47;5031969;27;103719;-70
2022/06/01 03:00:45;;;;;;;4.78;3.90;;;;;;;13.52;74.88;98452.56;5031490;27;103220;-70
2022/06/01 03:03:13;;;;;;;3.55;3.25;;;;;;;13.62;74.01;98456.91;5029123;27;102561;-70
2022/06/01 03:05:41;;;;;;;3.97;3.20;;;;;;;13.59;73.72;98451.03;5026189;27;103229;-70
2022/06/01 03:08:11;;;;;;;3.95;3.55;;;;;;;13.25;75.16;98454.00;5028473;27;103372;-70
2022/06/01 03:10:39;;;;;;;4.93;4.10;;;;;;;13.01;75.32;98461.41;5008537;27;104098;-70
2022/06/01 03:13:19;;;;;;;5.97;4.27;;;;;;;12.82;77.79;98444.53;5027770;27;102603;-70
2022/06/01 03:15:52;;;;;;;3.10;2.90;;;;;;;13.23;76.09;98453.28;5011767;27;104119;-70
2022/06/01 03:18:21;;;;;;;3.30;2.50;;;;;;;13.46;74.47;98458.41;5014434;27;104401;-70
2022/06/01 03:20:49;;;;;;;4.45;3.88;;;;;;;12.82;76.50;98450.69;5030621;27;103344;-70
2022/06/01 03:23:20;;;;;;;4.43;4.00;;;;;;;12.71;77.97;98454.25;5027571;27;103018;-70
2022/06/01 03:25:48;;;;;;;4.70;4.18;;;;;;;12.85;77.30;98450.44;5029878;27;103451;-69
2022/06/01 03:28:16;;;;;;;4.47;4.07;;;;;;;12.68;77.64;98451.03;5029797;27;103655;-70
2022/06/01 03:30:44;;;;;;;4.07;3.75;;;;;;;12.62;78.08;98443.56;5028813;27;103309;-70
2022/06/01 03:33:14;;;;;;;4.50;4.10;;;;;;;12.32;80.61;98451.47;5033711;27;102636;-70
2022/06/01 03:35:42;;;;;;;4.68;4.28;;;;;;;12.54;79.99;98461.94;5029656;27;102933;-70
2022/06/01 03:38:10;;;;;;;3.70;3.40;;;;;;;12.82;78.93;98456.00;5035756;27;103376;-69
2022/06/01 03:40:38;;;;;;;3.73;3.43;;;;;;;13.05;77.39;98459.31;5032186;27;103457;-72
2022/06/01 03:43:07;;;;;;;4.03;3.10;;;;;;;13.19;75.93;98465.13;5027876;27;102643;-72
2022/06/01 03:48:24;;;;;;;4.10;3.70;;;;;;;13.08;77.29;98467.06;5033999;27;104472;-71
2022/06/01 03:50:52;;;;;;;6.05;5.45;;;;;;;12.26;81.16;98474.00;5012865;27;103292;-71
2022/06/01 03:53:24;;;;;;;5.50;4.63;;;;;;;12.13;82.17;98468.84;5032130;27;103067;-70
2022/06/01 03:55:54;;;;;;;5.78;4.45;;;;;;;12.49;81.78;98458.84;5031723;27;102875;-70
2022/06/01 03:58:25;;;;;;;3.13;2.90;;;;;;;12.98;78.98;98456.34;5030518;27;104284;-70
2022/06/01 04:00:53;;;;;;;3.90;3.40;;;;;;;13.15;77.82;98462.88;5027887;27;105922;-71
2022/06/01 04:03:26;;;;;;;6.33;4.47;;;;;;;13.11;77.08;98467.59;5030974;27;102847;-71
2022/06/01 04:05:54;;;;;;;4.72;4.25;;;;;;;13.02;77.57;98470.19;5031264;27;104015;-71
2022/06/01 04:08:22;;;;;;;4.97;4.10;;;;;;;12.97;77.84;98465.25;5034210;27;104495;-71
2022/06/01 04:10:50;;;;;;;6.07;4.25;;;;;;;12.90;78.35;98472.06;5028349;27;103002;-70
2022/06/01 04:13:25;;;;;;;5.07;4.30;;;;;;;13.27;77.81;98473.28;5010383;27;102672;-70
2022/06/01 04:15:53;;;;;;;4.80;4.20;;;;;;;13.22;77.86;98474.66;5021291;27;103682;-78
2022/06/01 04:18:27;;;;;;;3.10;2.83;;;;;;;13.61;76.35;98473.84;5012699;27;104112;-77
2022/06/01 04:20:56;;;;;;;4.10;3.17;;;;;;;13.71;76.71;98477.34;5031884;27;103222;-78
2022/06/01 04:23:24;;;;;;;3.92;3.15;;;;;;;13.84;76.42;98471.78;5022439;27;102606;-77
2022/06/01 04:25:52;;;;;;;3.70;3.30;;;;;;;13.88;76.23;98473.19;5010153;27;104280;-76
2022/06/01 04:28:20;;;;;;;4.50;4.07;;;;;;;13.94;75.80;98472.66;5007142;27;104417;-77
2022/06/01 04:30:50;;;;;;;3.87;3.57;;;;;;;14.03;76.51;98469.19;5024104;27;103287;-76
2022/06/01 04:33:19;;;;;;;4.30;3.50;;;;;;;14.19;75.29;98471.28;5027760;27;103039;-76
2022/06/01 04:35:48;;;;;;;3.90;3.47;;;;;;;14.28;75.17;98470.44;5015409;27;104085;-76
2022/06/01 04:38:18;;;;;;;3.50;3.17;;;;;;;14.37;75.57;98467.81;5025263;27;104140;-76
2022/06/01 04:40:48;;;;;;;4.63;3.53;;;;;;;14.37;75.85;98469.66;5018233;27;103256;-76
2022/06/01 04:43:20;;;;;;;4.20;3.70;;;;;;;14.39;76.18;98463.22;5025504;27;102707;-77
2022/06/01 04:45:54;;;;;;;5.55;4.03;;;;;;;14.27;76.30;98466.94;5009887;27;103975;-77
2022/06/01 04:48:23;;;;;;;4.07;3.67;;;;;;;14.47;76.41;98457.19;5031005;27;103292;-76
2022/06/01 04:50:54;;;;;;;3.50;3.20;;;;;;;14.68;75.08;98467.69;5031974;27;103335;-76
2022/06/01 04:53:22;;;;;;;5.18;4.05;;;;;;;14.76;75.15;98470.47;5033054;27;102568;-76
2022/06/01 04:55:50;;;;;;;4.68;3.55;;;;;;;14.70;75.26;98471.88;5035584;27;104329;-76
2022/06/01 04:58:18;;;;;;;3.90;3.50;;;;;;;14.84;75.24;98475.91;5033441;27;103740;-77
2022/06/01 05:00:46;;;;;;;3.83;3.17;;;;;;;14.97;74.46;98468.44;5033848;27;103224;-76
2022/06/01 05:03:17;;;;;;;3.20;2.90;;;;;;;15.19;73.80;98462.78;5036916;27;102696;-76
2022/06/01 05:05:46;;;;;;;4.72;3.33;;;;;;;15.26;73.41;98465.69;5017654;27;103807;-77
2022/06/01 05:08:15;;;;;;;3.30;3.00;;;;;;;15.38;72.99;98468.03;5021047;27;103145;-81
2022/06/01 05:10:46;;;;;;;4.18;3.47;;;;;;;15.30;74.15;98465.25;5010694;27;102831;-80
2022/06/01 05:13:18;;;;;;;3.90;3.50;;;;;;;15.33;74.36;98469.44;5032618;27;102571;-75
2022/06/01 05:15:51;;;;;;;4.55;3.30;;;;;;;15.49;73.87;98459.06;5023165;27;103317;-75
2022/06/01 05:18:22;;;;;;;3.55;3.25;;;;;;;15.61;73.46;98458.72;5033634;27;103259;-75
2022/06/01 05:20:50;;;;;;;3.50;3.20;;;;;;;15.71;72.58;98457.81;5026965;27;102993;-75
2022/06/01 05:23:20;;;;;;;3.83;3.47;;;;;;;15.64;72.39;98460.22;5030206;27;102656;-75
2022/06/01 05:25:50;;;;;;;3.30;3.00;;;;;;;15.88;71.53;98451.69;5038449;27;104021;-74
2022/06/01 05:28:20;;;;;;;4.03;2.92;;;;;;;15.89;71.66;98453.34;5028377;27;104414;-74
2022/06/01 05:30:48;;;;;;;3.53;3.23;;;;;;;15.99;72.20;98454.16;5028738;27;103430;-75
2022/06/01 05:33:18;;;;;;;3.83;3.45;;;;;;;16.10;71.66;98453.94;5025028;27;103144;-77
2022/06/01 05:35:46;;;;;;;3.43;3.13;;;;;;;16.32;71.02;98453.47;4983825;27;103278;-74
2022/06/01 05:38:14;;;;;;;3.20;2.80;;;;;;;16.55;70.79;98444.06;5025809;27;104306;-75
2022/06/01 05:40:43;;;;;;;3.22;2.78;;;;;;;16.47;70.83;98451.97;5026830;27;103271;-74
2022/06/01 05:43:15;;;;;;;3.10;2.60;;;;;;;16.68;70.13;98455.16;5023402;27;104187;-75
2022/06/01 05:45:43;;;;;;;3.90;3.37;;;;;;;16.71;70.05;98454.84;5018994;27;103250;-77
2022/06/01 05:48:13;;;;;;;4.17;3.77;;;;;;;16.63;70.61;98456.59;5027803;27;104040;-74
2022/06/01 05:50:42;;;;;;;4.40;3.38;;;;;;;16.85;69.82;98448.09;5008105;27;103259;-74
2022/06/01 05:53:10;;;;;;;5.72;3.70;;;;;;;16.86;69.41;98446.28;5025583;27;103966;-75
2022/06/01 05:55:38;;;;;;;3.63;3.33;;;;;;;16.94;69.52;98449.84;5027488;27;104160;-74
2022/06/01 05:58:18;;;;;;;3.53;3.22;;;;;;;17.19;68.63;98438.31;5020045;27;103784;-75
2022/06/01 06:00:48;;;;;;;4.53;3.05;;;;;;;17.42;68.31;98449.28;5025661;27;103161;-75
2022/06/01 06:03:18;;;;;;;3.53;3.17;;;;;;;17.47;67.99;98446.97;5015314;27;102743;-74
2022/06/01 06:08:40;;;;;;;4.07;3.20;;;;;;;17.61;68.03;98454.41;5026860;27;104422;-77
2022/06/01 06:11:17;;;;;;;4.68;3.92;;;;;;;17.40;68.82;98452.09;5021605;27;103296;-76
2022/06/01 06:13:47;;;;;;;4.40;3.47;;;;;;;17.70;67.95;98448.09;5010463;27;103028;-77
2022/06/01 06:16:17;;;;;;;6.57;3.53;;;;;;;17.82;67.91;98460.16;5027719;27;103899;-77
2022/06/01 06:18:46;;;;;;;6.10;3.80;;;;;;;17.55;69.27;98452.38;5023638;27;103843;-76
2022/06/01 06:21:14;;;;;;;4.30;3.50;;;;;;;17.73;67.40;98460.28;5033616;27;103237;-77
2022/06/01 06:23:42;;;;;;;4.45;2.95;;;;;;;18.18;66.73;98457.25;5014228;28;102666;-77
2022/06/01 06:26:10;;;;;;;6.63;4.00;;;;;;;18.04;66.86;98456.06;5010928;27;103019;-77
2022/06/01 06:28:38;;;;;;;3.65;3.25;;;;;;;18.53;65.94;98462.31;5033209;27;103332;-70
2022/06/01 06:31:07;;;;;;;4.28;3.50;;;;;;;18.64;65.46;98469.22;5026119;27;103195;-70
2022/06/01 06:33:35;;;;;;;6.13;3.40;;;;;;;18.64;64.59;98462.00;5012228;27;102734;-70
2022/06/01 06:36:06;;;;;;;3.58;3.03;;;;;;;18.55;65.35;98456.84;5027820;27;102859;-70
2022/06/01 06:38:37;;;;;;;6.30;3.60;;;;;;;18.26;66.24;98466.13;5029256;27;103328;-70
2022/06/01 06:41:06;;;;;;;3.88;2.70;;;;;;;18.92;64.72;98457.97;5029343;27;103224;-69
2022/06/01 06:43:36;;;;;;;4.18;3.08;;;;;;;19.06;64.37;98459.97;5030013;27;103088;-70
2022/06/01 06:46:10;;;;;;;4.85;3.10;;;;;;;18.70;64.79;98453.31;5024642;27;102628;-70
2022/06/01 06:48:38;;;;;;;5.05;4.07;;;;;;;18.88;64.45;98445.94;5031396;27;104037;-70
2022/06/01 06:51:07;;;;;;;3.70;3.03;;;;;;;19.20;63.54;98453.06;5032071;27;103561;-70
2022/06/01 06:53:35;;;;;;;7.00;3.25;;;;;;;19.41;63.92;98447.19;5032862;27;102672;-70
2022/06/01 06:56:03;;;;;;;3.40;2.60;;;;;;;19.52;61.89;98447.66;5031845;27;104116;-70
2022/06/01 06:58:35;;;;;;;3.43;2.50;;;;;;;19.67;61.02;98453.13;5030011;27;103460;-70
2022/06/01 07:01:04;;;;;;;2.63;2.40;;;;;;;19.79;60.62;98449.03;5030746;27;102633;-70
2022/06/01 07:03:33;;;;;;;3.25;2.30;;;;;;;20.23;59.98;98438.59;5016000;27;102654;-70
2022/06/01 07:06:11;;;;;;;2.90;2.25;;;;;;;20.42;58.95;98440.81;5021997;27;104159;-71
2022/06/01 07:08:42;;;;;;;5.83;2.53;;;;;;;20.44;58.71;98438.78;5030949;27;104002;-70
2022/06/01 07:11:11;;;;;;;3.60;2.45;;;;;;;20.46;58.92;98433.25;5031246;27;103293;-70
2022/06/01 07:13:39;;;;;;;3.20;2.20;;;;;;;20.62;58.43;98433.97;5031594;27;102847;-70
2022/06/01 07:16:09;;;;;;;4.70;2.70;;;;;;;20.58;58.38;98437.16;5029633;27;103140;-70
2022/06/01 07:18:41;;;;;;;2.53;2.20;;;;;;;20.76;59.00;98443.91;5028202;27;103414;-70
2022/06/01 07:21:10;;;;;;;4.63;2.60;;;;;;;20.85;57.56;98439.31;5030360;27;103209;-70
2022/06/01 07:23:38;;;;;;;3.33;2.43;;;;;;;21.21;56.46;98423.38;5032788;27;103032;-70
2022/06/01 07:26:09;;;;;;;3.58;2.30;;;;;;;21.37;56.04;98434.75;5011146;28;104114;-70
2022/06/01 07:28:37;;;;;;;4.03;2.92;;;;;;;21.23;55.93;98443.66;5031180;27;104027;-70
2022/06/01 07:31:06;;;;;;;4.17;2.30;;;;;;;21.41;55.52;98435.22;5013514;27;103398;-70
2022/06/01 07:33:36;;;;;;;5.18;2.40;;;;;;;21.71;55.36;98436.03;5028395;27;103713;-70
2022/06/01 07:36:08;;;;;;;3.37;2.50;;;;;;;22.11;53.23;98438.22;5020111;27;103114;-70
2022/06/01 07:44:11;;;;;;;3.67;2.40;;;;;;;22.58;51.67;98437.66;5033134;27;102718;-70
2022/06/01 07:46:39;;;;;;;6.60;2.93;;;;;;;21.67;53.33;98438.25;5032280;27;104219;-70
2022/06/01 07:49:14;;;;;;;4.30;2.63;;;;;;;21.20;53.73;98446.69;5032270;27;104245;-71
2022/06/01 07:52:04;;;;;;;2.65;2.08;;;;;;;22.31;52.96;98436.59;5032669;27;103802;-70
2022/06/01 07:54:32;;;;;;;3.30;2.20;;;;;;;22.57;53.09;98437.88;5023373;27;102739;-71
2022/06/01 07:57:00;;;;;;;5.22;2.58;;;;;;;22.23;52.68;98442.06;5030735;27;103643;-70
2022/06/01 07:59:34;;;;;;;3.50;2.03;;;;;;;20.98;51.45;98436.81;5009402;27;104374;-70
2022/06/01 08:02:05;;;;;;;2.53;1.87;;;;;;;22.38;48.58;98429.41;5026128;27;103192;-70
2022/06/01 08:04:33;;;;;;;3.30;1.83;;;;;;;23.05;46.45;98421.72;5027674;27;102885;-71
2022/06/01 08:07:11;;;;;;;2.10;1.80;;;;;;;23.16;46.18;98423.03;5026273;27;104278;-65
2022/06/01 08:09:39;;;;;;;2.33;1.40;;;;;;;23.93;46.53;98426.41;5020012;27;103306;-70
2022/06/01 08:14:49;;;;;;;2.65;1.58;;;;;;;23.71;41.55;98424.84;4979229;27;103458;-70
2022/06/01 08:17:17;;;;;;;2.30;1.15;;;;;;;24.42;39.27;98420.72;5020633;27;104284;-70
2022/06/01 08:19:46;;;;;;;2.90;1.10;;;;;;;25.47;37.90;98404.53;5025368;27;104109;-71
2022/06/01 08:22:16;;;;;;;2.50;1.20;;;;;;;25.61;36.36;98403.44;5000809;27;104217;-73
2022/06/01 08:24:44;;;;;;;1.30;1.20;;;;;;;25.61;34.10;98389.94;5024820;27;102857;-70
2022/06/01 08:27:12;;;;;;;2.40;1.23;;;;;;;25.24;35.08;98409.53;5022001;27;104493;-70
2022/06/01 08:29:40;;;;;;;1.48;1.20;;;;;;;25.19;33.92;98407.47;5022293;27;103264;-70
2022/06/01 08:32:08;;;;;;;1.60;1.10;;;;;;;26.78;33.39;98395.72;5023544;27;103206;-70
2022/06/01 08:34:39;;;;;;;3.30;1.40;;;;;;;26.04;34.78;98403.69;5012613;27;103122;-70
2022/06/01 08:37:07;;;;;;;1.58;1.27;;;;;;;26.56;35.01;98409.84;5013269;27;103974;-70
2022/06/01 08:39:36;;;;;;;1.70;1.27;;;;;;;26.88;35.96;98408.78;5001102;27;104248;-70
2022/06/01 08:42:06;;;;;;;4.00;1.60;;;;;;;25.93;35.87;98394.38;5020672;27;103443;-71
2022/06/01 08:44:38;;;;;;;2.13;1.30;;;;;;;26.11;36.13;98407.19;5027253;27;102760;-71
2022/06/01 08:47:10;;;;;;;2.08;1.40;;;;;;;24.17;37.18;98412.38;5025995;27;103549;-71
2022/06/01 08:49:40;;;;;;;3.30;1.33;;;;;;;24.39;38.08;98410.38;5010846;27;104491;-71
2022/06/01 08:52:09;;;;;;;4.60;1.60;;;;;;;23.47;40.34;98436.94;5008300;27;104100;-71
2022/06/01 08:54:39;;;;;;;3.55;2.10;;;;;;;23.28;42.74;98451.09;5026321;27;102846;-71
2022/06/01 08:57:13;;;;;;;4.33;1.90;;;;;;;23.30;42.85;98450.94;5028125;27;103908;-71
2022/06/01 08:59:49;;;;;;;7.18;2.05;;;;;;;22.76;43.11;98453.41;5028151;27;103735;-71
2022/06/01 09:02:27;;;;;;;4.32;2.30;;;;;;;23.03;43.80;98452.59;5011804;27;104074;-71
2022/06/01 09:05:10;;;;;;;4.78;1.95;;;;;;;23.83;41.58;98446.69;5011027;27;102672;-71
2022/06/01 09:07:45;;;;;;;7.65;1.83;;;;;;;23.82;42.45;98450.41;5016189;27;102968;-71
2022/06/01 09:10:32;;;;;;;3.05;1.90;;;;;;;23.61;41.66;98449.47;5028178;27;103011;-71
2022/06/01 09:13:09;;;;;;;3.33;1.60;;;;;;;25.36;39.68;98461.94;5027981;27;103354;-71
2022/06/01 09:15:44;;;;;;;1.83;1.65;;;;;;;25.52;37.51;98458.81;5029036;27;102982;-71
2022/06/01 09:18:13;;;;;;;3.65;1.95;;;;;;;24.84;39.63;98456.56;5030115;27;103967;-71
2022/06/01 09:23:27;;;;;;;3.53;2.10;;;;;;;24.00;40.71;98469.59;5027794;27;103226;-71
2022/06/01 09:25:58;;;;;;;3.50;1.80;;;;;;;24.20;40.56;98465.09;5029535;27;102625;-72
2022/06/01 09:28:29;;;;;;;6.00;1.83;;;;;;;24.55;41.36;98463.13;5029494;27;102944;-72
2022/06/01 09:30:59;;;;;;;2.30;1.77;;;;;;;25.16;39.01;98455.72;5028346;27;103341;-72
2022/06/01 09:33:30;;;;;;;3.13;1.70;;;;;;;26.15;37.63;98456.34;5025742;27;103388;-72
2022/06/01 09:36:22;;;;;;;2.88;1.77;;;;;;;25.72;38.83;98446.06;5027574;27;102701;-72
2022/06/01 09:38:52;;;;;;;2.17;1.67;;;;;;;25.94;38.85;98449.31;5031289;27;104240;-72
2022/06/01 09:41:28;;;;;;;3.03;1.73;;;;;;;26.26;37.20;98442.13;5030214;27;104141;-72
2022/06/01 09:43:58;;;;;;;3.97;1.70;;;;;;;26.51;37.05;98456.56;5021738;27;103232;-72
2022/06/01 09:46:33;;;;;;;2.40;1.80;;;;;;;27.25;36.17;98453.94;5024325;27;103987;-72
2022/06/01 09:49:04;;;;;;;3.72;1.48;;;;;;;25.54;38.78;98456.75;5028253;27;103898;-72
2022/06/01 09:51:34;;;;;;;2.10;1.37;;;;;;;25.68;35.70;98452.97;5030074;27;104302;-72
2022/06/01 09:54:13;;;;;;;3.03;1.63;;;;;;;24.42;37.90;98458.53;5014231;27;102911;-72
2022/06/01 09:56:48;;;;;;;3.33;1.50;;;;;;;25.32;38.15;98452.56;5032218;27;103021;-72
2022/06/01 10:07:49;;;;;;;2.10;1.50;;;;;;;25.67;37.40;98462.09;5028707;27;102910;-72
2022/06/01 10:10:26;;;;;;;3.10;1.30;;;;;;;26.94;35.84;98451.28;5033756;27;104059;-80
2022/06/01 10:12:59;;;;;;;2.35;1.33;;;;;;;26.37;36.81;98450.38;5033509;27;103098;-71
2022/06/01 10:15:36;;;;;;;2.67;1.60;;;;;;;25.61;37.74;98454.00;5035507;27;102689;-73
2022/06/01 10:18:12;;;;;;;2.35;1.48;;;;;;;26.31;35.97;98445.00;5035219;27;102705;-75
2022/06/01 10:20:47;;;;;;;3.00;1.40;;;;;;;25.11;37.59;98447.41;5030045;27;104038;-75
2022/06/01 10:23:22;;;;;;;3.40;1.30;;;;;;;24.21;37.44;98450.59;5033795;27;104115;-75
2022/06/01 10:25:53;;;;;;;4.65;1.40;;;;;;;25.39;33.70;98456.09;5029537;27;103270;-74
2022/06/01 10:28:27;;;;;;;1.80;1.17;;;;;;;26.11;34.23;98444.22;5027504;27;102976;-75
2022/06/01 10:31:21;;;;;;;1.97;1.20;;;;;;;26.82;33.49;98437.59;5035443;27;103927;-75
2022/06/01 10:33:58;;;;;;;2.05;1.02;;;;;;;27.32;31.29;98440.28;5028125;27;103393;-74
2022/06/01 10:36:38;;;;;;;1.30;1.00;;;;;;;26.99;30.38;98438.72;5027993;27;103578;-75
2022/06/01 10:39:10;;;;;;;1.33;0.90;;;;;;;27.59;33.04;98444.44;5026265;27;102707;-75
2022/06/01 10:41:42;;;;;;;1.20;1.10;;;;;;;27.14;33.89;98445.69;5031362;27;103681;-75
2022/06/01 10:44:18;;;;;;;2.53;1.02;;;;;;;26.51;32.10;98440.28;5031630;27;104099;-75
2022/06/01 10:46:51;;;;;;;2.60;1.10;;;;;;;26.87;32.77;98443.19;5030341;27;103180;-75
2022/06/01 10:49:33;;;;;;;1.80;1.20;;;;;;;27.36;31.26;98444.22;5004163;28;102683;-75
2022/06/01 10:52:09;;;;;;;2.22;1.30;;;;;;;27.01;30.19;98442.03;5010520;27;104511;-75
2022/06/01 10:54:42;;;;;;;1.53;1.00;;;;;;;27.09;30.18;98434.69;5024796;27;103383;-74
2022/06/01 10:57:15;;;;;;;1.55;1.00;;;;;;;27.17;30.66;98442.53;5005165;27;103268;-74
2022/06/01 10:59:44;;;;;;;1.52;1.00;;;;;;;27.47;31.21;98438.09;5005187;27;102777;-74
2022/06/01 11:02:31;;;;;;;1.30;0.90;;;;;;;27.58;30.91;98442.78;5025102;27;103879;-73
2022/06/01 11:05:16;;;;;;;1.63;1.20;;;;;;;27.86;30.09;98445.78;5024922;27;103880;-74
2022/06/01 11:08:13;;;;;;;2.22;0.80;;;;;;;28.68;29.64;98438.88;5024273;27;103327;-74
2022/06/01 11:10:51;;;;;;;3.00;1.07;;;;;;;27.68;29.57;98443.06;5021033;27;104838;-73
2022/06/01 11:13:32;;;;;;;4.18;1.00;;;;;;;27.28;30.04;98441.81;5013887;27;103272;-74
2022/06/01 11:16:14;;;;;;;1.63;1.17;;;;;;;27.42;30.35;98432.50;5008183;27;104128;-73
2022/06/01 11:18:58;;;;;;;2.47;1.13;;;;;;;27.04;30.27;98430.75;5011362;27;103949;-73
2022/06/01 11:21:39;;;;;;;3.30;1.30;;;;;;;26.49;31.01;98424.28;5021503;27;102727;-76
2022/06/01 11:24:24;;;;;;;1.65;0.88;;;;;;;27.91;30.68;98426.94;5004250;27;103033;-75
2022/06/01 11:27:32;;;;;;;1.60;0.88;;;;;;;28.28;29.79;98429.63;5022579;27;103422;-75
2022/06/01 11:30:12;;;;;;;3.08;1.00;;;;;;;27.52;29.21;98432.81;5011462;27;103230;-75
2022/06/01 11:32:48;;;;;;;3.03;1.20;;;;;;;27.68;29.16;98432.22;5016630;27;102939;-75
2022/06/01 11:35:34;;;;;;;1.00;0.75;;;;;;;27.86;28.05;98425.97;5018438;27;103571;-74
2022/06/01 11:38:08;;;;;;;1.10;0.90;;;;;;;27.93;27.49;98432.94;5019313;27;103242;-74
2022/06/01 11:40:45;;;;;;;1.27;0.80;;;;;;;28.47;27.50;98417.63;5020597;27;103588;-74
2022/06/01 11:43:27;;;;;;;2.40;1.00;;;;;;;28.78;27.23;98414.69;5022354;27;103227;-75
2022/06/01 11:45:59;;;;;;;1.83;0.87;;;;;;;28.80;27.46;98419.88;5021567;27;102795;-74
2022/06/01 11:48:32;;;;;;;2.08;1.00;;;;;;;27.47;29.37;98427.25;5030360;27;103564;-74
2022/06/01 11:51:12;;;;;;;2.75;1.17;;;;;;;28.16;29.45;98411.38;5027341;27;103168;-74
2022/06/01 11:53:55;;;;;;;2.05;1.10;;;;;;;28.06;29.36;98424.69;5029951;27;103802;-74
2022/06/01 11:56:25;;;;;;;2.53;1.10;;;;;;;27.16;30.18;98420.00;5028995;27;104255;-73
2022/06/01 11:59:04;;;;;;;2.30;1.10;;;;;;;28.26;29.82;98412.72;5025204;27;103980;-76
2022/06/01 12:01:36;;;;;;;4.50;1.25;;;;;;;27.15;29.39;98415.63;5027877;27;103461;-75
2022/06/01 12:04:18;;;;;;;1.37;1.00;;;;;;;27.00;29.42;98424.09;5025674;27;102643;-75
2022/06/01 12:06:54;;;;;;;2.00;0.98;;;;;;;26.34;30.50;98417.50;5016449;27;104323;-71
2022/06/01 12:09:35;;;;;;;2.60;1.02;;;;;;;28.02;28.55;98412.59;5002608;27;103995;-72
2022/06/01 12:12:04;;;;;;;2.30;1.10;;;;;;;27.57;29.56;98424.81;5021742;27;103434;-71
2022/06/01 12:14:36;;;;;;;1.87;0.97;;;;;;;27.22;29.92;98410.16;5024922;27;104980;-72
2022/06/01 12:17:28;;;;;;;2.08;1.42;;;;;;;28.13;29.48;98397.44;5027088;27;104031;-69